sensor_id;sensor_type;location;lat;lon;timestamp;P1;durP1;ratioP1;P2;durP2;ratioP2
76749;SDS011;66447;35.844;14.468;2022-12-29T00:13:19;26.73;;;20.85;;
76749;SDS011;66447;35.844;14.468;2022-12-29T00:28:38;18.15;;;8.73;;
76749;SDS011;66447;35.844;14.468;2022-12-29T00:43:57;13.70;;;9.15;;
76749;SDS011;66447;35.844;14.468;2022-12-29T00:59:07;15.40;;;8.50;;
76749;SDS011;66447;35.844;14.468;2022-12-29T01:14:09;18.20;;;9.05;;
76749;SDS011;66447;35.844;14.468;2022-12-29T01:29:10;22.17;;;11.27;;
76749;SDS011;66447;35.844;14.468;2022-12-29T01:59:56;35.65;;;16.73;;
76749;SDS011;66447;35.844;14.468;2022-12-29T02:15:02;47.60;;;21.70;;
76749;SDS011;66447;35.844;14.468;2022-12-29T02:45:30;50.20;;;21.85;;
76749;SDS011;66447;35.844;14.468;2022-12-29T03:00:38;47.47;;;22.83;;
76749;SDS011;66447;35.844;14.468;2022-12-29T03:16:07;55.45;;;25.27;;
76749;SDS011;66447;35.844;14.468;2022-12-29T03:31:21;62.47;;;26.33;;
76749;SDS011;66447;35.844;14.468;2022-12-29T03:46:24;57.10;;;26.00;;
76749;SDS011;66447;35.844;14.468;2022-12-29T04:01:25;56.40;;;25.10;;
76749;SDS011;66447;35.844;14.468;2022-12-29T04:16:26;62.17;;;29.05;;
76749;SDS011;66447;35.844;14.468;2022-12-29T04:31:27;59.15;;;29.20;;
76749;SDS011;66447;35.844;14.468;2022-12-29T04:46:27;47.33;;;28.25;;
76749;SDS011;66447;35.844;14.468;2022-12-29T05:01:28;54.90;;;30.88;;
76749;SDS011;66447;35.844;14.468;2022-12-29T05:16:29;74.28;;;34.67;;
76749;SDS011;66447;35.844;14.468;2022-12-29T05:31:30;69.80;;;34.25;;
76749;SDS011;66447;35.844;14.468;2022-12-29T05:46:30;71.18;;;35.60;;
76749;SDS011;66447;35.844;14.468;2022-12-29T06:01:31;67.00;;;35.33;;
76749;SDS011;66447;35.844;14.468;2022-12-29T06:16:34;85.13;;;39.28;;
76749;SDS011;66447;35.844;14.468;2022-12-29T06:31:35;82.43;;;38.58;;
76749;SDS011;66447;35.844;14.468;2022-12-29T06:46:36;64.57;;;34.77;;
76749;SDS011;66447;35.844;14.468;2022-12-29T07:01:36;66.40;;;35.58;;
76749;SDS011;66447;35.844;14.468;2022-12-29T07:16:37;90.82;;;40.72;;
76749;SDS011;66447;35.844;14.468;2022-12-29T07:31:38;64.70;;;33.60;;
76749;SDS011;66447;35.844;14.468;2022-12-29T07:46:39;81.93;;;37.63;;
76749;SDS011;66447;35.844;14.468;2022-12-29T08:01:40;63.08;;;35.45;;
76749;SDS011;66447;35.844;14.468;2022-12-29T08:16:41;33.88;;;16.83;;
76749;SDS011;66447;35.844;14.468;2022-12-29T08:31:41;20.37;;;9.13;;
76749;SDS011;66447;35.844;14.468;2022-12-29T08:46:44;12.60;;;8.38;;
76749;SDS011;66447;35.844;14.468;2022-12-29T09:01:44;15.65;;;10.93;;
76749;SDS011;66447;35.844;14.468;2022-12-29T09:16:45;13.70;;;8.88;;
76749;SDS011;66447;35.844;14.468;2022-12-29T09:32:04;6.63;;;4.00;;
76749;SDS011;66447;35.844;14.468;2022-12-29T09:47:05;11.85;;;5.43;;
76749;SDS011;66447;35.844;14.468;2022-12-29T10:32:54;13.55;;;5.20;;
76749;SDS011;66447;35.844;14.468;2022-12-29T10:48:03;9.07;;;4.65;;
76749;SDS011;66447;35.844;14.468;2022-12-29T11:03:12;9.65;;;3.92;;
76749;SDS011;66447;35.844;14.468;2022-12-29T11:18:22;10.05;;;4.68;;
76749;SDS011;66447;35.844;14.468;2022-12-29T11:33:23;11.80;;;3.97;;
76749;SDS011;66447;35.844;14.468;2022-12-29T11:48:28;9.05;;;4.18;;
76749;SDS011;66447;35.844;14.468;2022-12-29T12:03:32;9.85;;;4.90;;
76749;SDS011;66447;35.844;14.468;2022-12-29T12:18:40;8.07;;;3.63;;
76749;SDS011;66447;35.844;14.468;2022-12-29T12:33:42;6.75;;;4.70;;
76749;SDS011;66447;35.844;14.468;2022-12-29T13:04:35;10.50;;;4.70;;
76749;SDS011;66447;35.844;14.468;2022-12-29T13:50:02;9.52;;;3.58;;
76749;SDS011;66447;35.844;14.468;2022-12-29T14:20:22;9.20;;;5.00;;
76749;SDS011;66447;35.844;14.468;2022-12-29T14:35:42;10.52;;;5.18;;
76749;SDS011;66447;35.844;14.468;2022-12-29T14:50:44;13.97;;;4.57;;
76749;SDS011;66447;35.844;14.468;2022-12-29T15:05:47;8.95;;;5.00;;
76749;SDS011;66447;35.844;14.468;2022-12-29T15:20:53;11.10;;;5.25;;
76749;SDS011;66447;35.844;14.468;2022-12-29T15:36:01;10.43;;;5.28;;
76749;SDS011;66447;35.844;14.468;2022-12-29T15:51:04;11.95;;;4.55;;
76749;SDS011;66447;35.844;14.468;2022-12-29T16:06:31;15.57;;;7.68;;
76749;SDS011;66447;35.844;14.468;2022-12-29T16:21:35;14.43;;;5.32;;
76749;SDS011;66447;35.844;14.468;2022-12-29T16:51:41;20.30;;;10.38;;
76749;SDS011;66447;35.844;14.468;2022-12-29T17:06:43;14.68;;;4.75;;
76749;SDS011;66447;35.844;14.468;2022-12-29T17:21:44;13.68;;;3.13;;
76749;SDS011;66447;35.844;14.468;2022-12-29T17:36:45;9.40;;;3.27;;
76749;SDS011;66447;35.844;14.468;2022-12-29T17:51:46;11.97;;;4.17;;
76749;SDS011;66447;35.844;14.468;2022-12-29T18:06:46;14.48;;;5.45;;
76749;SDS011;66447;35.844;14.468;2022-12-29T18:21:47;11.93;;;6.28;;
76749;SDS011;66447;35.844;14.468;2022-12-29T18:36:48;16.15;;;8.10;;
76749;SDS011;66447;35.844;14.468;2022-12-29T18:51:50;11.82;;;7.32;;
76749;SDS011;66447;35.844;14.468;2022-12-29T19:06:50;15.80;;;5.10;;
76749;SDS011;66447;35.844;14.468;2022-12-29T19:21:51;12.68;;;5.13;;
76749;SDS011;66447;35.844;14.468;2022-12-29T19:36:55;12.05;;;5.07;;
76749;SDS011;66447;35.844;14.468;2022-12-29T19:51:56;11.07;;;5.78;;
76749;SDS011;66447;35.844;14.468;2022-12-29T20:06:57;11.73;;;5.47;;
76749;SDS011;66447;35.844;14.468;2022-12-29T20:21:57;11.52;;;5.80;;
